Wellington, Texas
Current Conditions -  °F | °C
As of 10:53 PM on Tuesday 25 Nov 2014 (Local Time) from KCDS Reporting Station
Clear Clear  
Wind Chill: 38°   Ceiling: Unl
Heat Index: 43°   Visibility: 10mi
Dew Point: 17°   Wind: 9mph
Humidity: 35%   Direction: 240°WSW
Pressure: 29.99"   Gusts: NA
Location:  34.86°N, 100.21°W
Report Text: KCDS 260453Z AUTO 24008KT 10SM CLR 06/M08 A2999 RMK AO2 SLP153 T00611083
Loading
Personal Weather Stations






























Interactive Weather Map New forecast layout! Learn more

10-Day Weather Forecast

Advertisements
Track Severe Weather on mobile